createdAt,value
2023-03-07T00:02:14.114Z,5.80
2023-03-07T00:04:45.087Z,5.90
2023-03-07T00:07:13.318Z,6.00
2023-03-07T00:09:42.618Z,5.80
2023-03-07T00:12:11.342Z,5.70
2023-03-07T00:14:39.332Z,5.60
2023-03-07T00:17:08.288Z,5.60
2023-03-07T00:19:36.357Z,5.70
2023-03-07T00:22:05.273Z,5.80
2023-03-07T00:24:33.352Z,5.60
2023-03-07T00:27:02.870Z,5.90
2023-03-07T00:29:31.097Z,5.90
2023-03-07T00:31:59.144Z,5.90
2023-03-07T00:34:27.326Z,5.80
2023-03-07T00:36:55.290Z,5.70
2023-03-07T00:39:23.809Z,5.70
2023-03-07T00:41:52.114Z,5.60
2023-03-07T00:44:22.662Z,5.70
2023-03-07T00:46:50.775Z,5.60
2023-03-07T00:49:20.367Z,5.70
2023-03-07T00:51:48.811Z,5.70
2023-03-07T00:54:16.975Z,5.70
2023-03-07T00:56:45.030Z,5.80
2023-03-07T00:59:13.101Z,5.80
2023-03-07T01:01:42.803Z,5.80
2023-03-07T01:04:10.846Z,5.80
2023-03-07T01:06:38.970Z,5.90
2023-03-07T01:09:08.526Z,5.90
2023-03-07T01:11:37.130Z,5.80
2023-03-07T01:14:06.306Z,5.70
2023-03-07T01:16:38.010Z,5.70
2023-03-07T01:19:09.041Z,5.70
2023-03-07T01:21:39.023Z,5.60
2023-03-07T01:24:08.019Z,5.60
2023-03-07T01:26:36.176Z,5.50
2023-03-07T01:29:05.517Z,5.50
2023-03-07T01:31:37.708Z,5.40
2023-03-07T01:34:08.103Z,5.40
2023-03-07T01:36:37.582Z,5.30
2023-03-07T01:39:07.856Z,5.20
2023-03-07T01:41:39.248Z,5.10
2023-03-07T01:44:15.216Z,5.20
2023-03-07T01:46:50.574Z,5.20
2023-03-07T01:49:29.473Z,5.10
2023-03-07T01:52:03.850Z,5.10
2023-03-07T01:54:33.719Z,5.00
2023-03-07T01:57:03.210Z,5.00
2023-03-07T01:59:34.897Z,5.00
2023-03-07T02:02:06.291Z,5.00
2023-03-07T02:04:38.814Z,5.00
2023-03-07T02:07:09.534Z,5.00
2023-03-07T02:09:38.326Z,4.80
2023-03-07T02:12:06.804Z,4.80
2023-03-07T02:14:35.291Z,4.70
2023-03-07T02:17:05.080Z,4.70
2023-03-07T02:19:48.078Z,4.60
2023-03-07T02:22:18.046Z,4.60
2023-03-07T02:24:49.693Z,4.50
2023-03-07T02:27:19.539Z,4.50
2023-03-07T02:29:47.891Z,4.40
2023-03-07T02:32:16.374Z,4.40
2023-03-07T02:34:44.418Z,4.50
2023-03-07T02:37:21.201Z,4.50
2023-03-07T02:39:50.394Z,4.50
2023-03-07T02:42:22.556Z,4.40
2023-03-07T02:44:56.868Z,4.40
2023-03-07T02:47:25.572Z,4.40
2023-03-07T02:49:54.352Z,4.50
2023-03-07T02:52:22.936Z,4.60
2023-03-07T02:54:51.945Z,4.60
2023-03-07T02:57:21.698Z,4.60
2023-03-07T02:59:49.860Z,4.70
2023-03-07T03:02:17.992Z,4.60
2023-03-07T03:04:47.448Z,4.50
2023-03-07T03:07:15.506Z,4.60
2023-03-07T03:09:43.398Z,4.60
2023-03-07T03:12:11.349Z,4.60
2023-03-07T03:14:41.638Z,4.60
2023-03-07T03:17:10.890Z,4.70
2023-03-07T03:19:48.864Z,4.70
2023-03-07T03:22:26.810Z,4.80
2023-03-07T03:24:59.042Z,5.00
2023-03-07T03:27:28.115Z,5.10
2023-03-07T03:29:58.719Z,5.00
2023-03-07T03:32:27.780Z,5.00
2023-03-07T03:34:57.968Z,5.00
2023-03-07T03:37:27.131Z,5.00
2023-03-07T03:39:57.139Z,4.90
2023-03-07T03:42:25.206Z,4.90
2023-03-07T03:44:53.311Z,4.70
2023-03-07T03:47:23.348Z,4.70
2023-03-07T03:49:51.342Z,4.60
2023-03-07T03:52:20.575Z,4.60
2023-03-07T03:54:49.493Z,4.60
2023-03-07T03:57:20.653Z,4.70
2023-03-07T03:59:49.039Z,4.80
2023-03-07T04:02:19.210Z,4.90
2023-03-07T04:04:48.778Z,4.80
2023-03-07T04:07:16.882Z,4.80
2023-03-07T04:09:45.134Z,4.80
2023-03-07T04:12:13.153Z,4.80
2023-03-07T04:14:41.059Z,4.90
2023-03-07T04:17:09.094Z,5.00
2023-03-07T04:19:38.241Z,5.00
2023-03-07T04:22:11.040Z,5.00
2023-03-07T04:24:39.334Z,5.00
2023-03-07T04:27:07.557Z,5.10
2023-03-07T04:29:37.431Z,5.00
2023-03-07T04:32:14.395Z,5.20
2023-03-07T04:34:42.465Z,5.00
2023-03-07T04:37:11.935Z,4.90
2023-03-07T04:39:40.026Z,4.90
2023-03-07T04:42:09.778Z,4.90
2023-03-07T04:44:38.313Z,5.10
2023-03-07T04:47:06.442Z,5.10
2023-03-07T04:49:36.893Z,5.30
2023-03-07T04:52:07.267Z,5.30
2023-03-07T04:54:37.352Z,5.20
2023-03-07T04:57:05.752Z,5.10
2023-03-07T04:59:36.218Z,5.00
2023-03-07T05:02:04.206Z,5.00
2023-03-07T05:04:33.118Z,5.00
2023-03-07T05:07:01.428Z,5.10
2023-03-07T05:09:29.632Z,5.20
2023-03-07T05:12:01.370Z,5.20
2023-03-07T05:14:30.286Z,5.10
2023-03-07T05:16:58.325Z,5.00
2023-03-07T05:19:26.950Z,5.10
2023-03-07T05:21:54.944Z,5.10
2023-03-07T05:24:23.073Z,5.10
2023-03-07T05:26:51.169Z,5.20
2023-03-07T05:29:21.164Z,5.20
2023-03-07T05:31:49.331Z,5.30
2023-03-07T05:34:17.832Z,5.30
2023-03-07T05:36:46.143Z,5.30
2023-03-07T05:39:15.561Z,5.30
2023-03-07T05:41:44.475Z,5.30
2023-03-07T05:44:13.713Z,5.30
2023-03-07T05:46:43.306Z,5.30
2023-03-07T05:49:11.781Z,5.20
2023-03-07T05:51:39.892Z,5.20
2023-03-07T05:54:08.001Z,5.20
2023-03-07T05:56:37.714Z,5.30
2023-03-07T05:59:07.638Z,5.30
2023-03-07T06:01:35.807Z,5.30
2023-03-07T06:04:05.363Z,5.30
2023-03-07T06:06:33.771Z,5.20
2023-03-07T06:09:02.088Z,5.20
2023-03-07T06:11:30.176Z,5.20
2023-03-07T06:13:58.190Z,5.20
2023-03-07T06:16:26.402Z,5.20
2023-03-07T06:18:55.462Z,5.30
2023-03-07T06:21:25.060Z,5.30
2023-03-07T06:23:53.258Z,5.40
2023-03-07T06:26:23.716Z,5.40
2023-03-07T06:28:54.458Z,5.50
2023-03-07T06:31:24.542Z,5.60
2023-03-07T06:33:56.015Z,5.70
2023-03-07T06:36:26.846Z,5.70
2023-03-07T06:38:58.422Z,5.70
2023-03-07T06:41:26.885Z,5.70
2023-03-07T06:43:56.989Z,5.70
2023-03-07T06:46:28.514Z,5.70
2023-03-07T06:48:57.524Z,5.70
2023-03-07T06:51:28.120Z,5.70
2023-03-07T06:53:58.732Z,5.70
2023-03-07T06:56:29.811Z,5.60
2023-03-07T06:58:58.394Z,5.60
2023-03-07T07:01:28.163Z,5.50
2023-03-07T07:03:58.868Z,5.50
2023-03-07T07:06:29.712Z,5.60
2023-03-07T07:08:58.409Z,5.60
2023-03-07T07:11:30.451Z,5.60
2023-03-07T07:13:58.469Z,5.60
2023-03-07T07:16:26.545Z,5.60
2023-03-07T07:18:54.567Z,5.60
2023-03-07T07:21:23.134Z,5.70
2023-03-07T07:23:52.884Z,5.70
2023-03-07T07:26:21.311Z,5.70
2023-03-07T07:28:49.515Z,5.80
2023-03-07T07:31:20.184Z,5.80
2023-03-07T07:33:48.319Z,5.90
2023-03-07T07:36:17.342Z,5.90
2023-03-07T07:38:45.834Z,5.90
2023-03-07T07:41:15.366Z,5.90
2023-03-07T07:43:50.058Z,5.90
2023-03-07T07:46:23.965Z,5.80
2023-03-07T07:48:53.414Z,5.80
2023-03-07T07:51:21.724Z,5.80
2023-03-07T07:53:50.009Z,5.90
2023-03-07T07:56:19.753Z,6.00
2023-03-07T07:58:47.989Z,6.00
2023-03-07T08:01:19.019Z,6.00
2023-03-07T08:03:47.374Z,6.00
2023-03-07T08:06:19.943Z,6.00
2023-03-07T08:08:49.119Z,6.10
2023-03-07T08:11:17.092Z,6.10
2023-03-07T08:13:47.233Z,6.20
2023-03-07T08:16:16.261Z,6.20
2023-03-07T08:18:49.314Z,6.20
2023-03-07T08:21:17.520Z,6.40
2023-03-07T08:23:45.684Z,6.30
2023-03-07T08:26:14.338Z,6.40
2023-03-07T08:28:43.257Z,6.50
2023-03-07T08:31:15.073Z,6.50
2023-03-07T08:33:43.861Z,6.40
2023-03-07T08:36:11.886Z,6.50
2023-03-07T08:38:40.868Z,6.50
2023-03-07T08:41:09.405Z,6.40
2023-03-07T08:43:39.249Z,6.40
2023-03-07T08:46:07.717Z,6.40
2023-03-07T08:48:37.150Z,6.40
2023-03-07T08:51:06.887Z,6.40
2023-03-07T08:53:35.321Z,6.50
2023-03-07T08:56:06.884Z,6.50
2023-03-07T08:58:35.007Z,6.60
2023-03-07T09:01:03.815Z,6.50
2023-03-07T09:03:32.144Z,6.40
2023-03-07T09:06:02.061Z,6.50
2023-03-07T09:08:30.069Z,6.60
2023-03-07T09:10:59.982Z,6.60
2023-03-07T09:13:28.414Z,6.50
2023-03-07T09:15:56.433Z,6.60
2023-03-07T09:18:25.064Z,6.60
2023-03-07T09:20:53.086Z,6.50
2023-03-07T09:23:22.564Z,6.50
2023-03-07T09:25:50.542Z,6.50
2023-03-07T09:28:18.688Z,6.60
2023-03-07T09:30:47.174Z,6.60
2023-03-07T09:33:15.166Z,6.70
2023-03-07T09:35:44.051Z,6.70
2023-03-07T09:38:14.079Z,6.60
2023-03-07T09:40:46.236Z,6.60
2023-03-07T09:43:19.432Z,6.60
2023-03-07T09:46:08.207Z,6.60
2023-03-07T09:48:54.794Z,6.60
2023-03-07T09:51:26.277Z,6.60
2023-03-07T09:53:56.209Z,6.60
2023-03-07T09:56:28.004Z,6.70
2023-03-07T09:59:02.542Z,6.70
2023-03-07T10:01:33.690Z,6.70
2023-03-07T10:04:02.703Z,6.80
2023-03-07T10:06:32.770Z,6.70
2023-03-07T10:09:01.761Z,6.80
2023-03-07T10:11:42.024Z,6.90
2023-03-07T10:14:14.962Z,6.90
2023-03-07T10:16:48.022Z,6.90
2023-03-07T10:19:20.928Z,7.00
2023-03-07T10:21:54.192Z,7.10
2023-03-07T10:24:31.777Z,7.10
2023-03-07T10:27:04.280Z,7.00
2023-03-07T10:29:35.753Z,7.00
2023-03-07T10:32:12.167Z,7.20
2023-03-07T10:34:41.814Z,7.30
2023-03-07T10:37:13.621Z,7.40
2023-03-07T10:39:44.432Z,7.50
2023-03-07T10:42:15.021Z,7.40
2023-03-07T10:44:45.216Z,7.40
2023-03-07T10:47:18.973Z,7.40
2023-03-07T10:49:47.935Z,7.50
2023-03-07T10:52:20.409Z,7.60
2023-03-07T10:54:48.744Z,7.50
2023-03-07T10:57:19.141Z,7.50
2023-03-07T10:59:48.507Z,7.60
2023-03-07T11:02:28.853Z,7.60
2023-03-07T11:04:56.999Z,7.60
2023-03-07T11:07:29.206Z,7.60
2023-03-07T11:09:57.691Z,7.50
2023-03-07T11:12:29.291Z,7.40
2023-03-07T11:14:58.920Z,7.50
2023-03-07T11:17:28.509Z,7.40
2023-03-07T11:19:57.347Z,7.50
2023-03-07T11:22:27.194Z,7.40
2023-03-07T11:24:57.939Z,7.40
2023-03-07T11:27:34.089Z,7.40
2023-03-07T11:30:22.916Z,7.40
2023-03-07T11:32:58.598Z,7.50
2023-03-07T11:35:32.061Z,7.60
2023-03-07T11:38:04.197Z,7.70
2023-03-07T11:40:35.830Z,7.70
2023-03-07T11:43:27.878Z,7.70
2023-03-07T11:46:00.212Z,7.80
2023-03-07T11:48:36.009Z,7.70
2023-03-07T11:51:04.731Z,7.70
2023-03-07T11:53:43.713Z,7.80
2023-03-07T11:56:18.213Z,8.00
2023-03-07T11:58:56.814Z,8.00
2023-03-07T12:01:31.736Z,8.20
2023-03-07T12:04:11.929Z,8.40
2023-03-07T12:06:44.886Z,8.60
2023-03-07T12:09:19.005Z,8.60
2023-03-07T12:12:00.386Z,8.60
2023-03-07T12:14:34.702Z,8.50
2023-03-07T12:17:07.843Z,8.30
2023-03-07T12:19:44.864Z,8.60
2023-03-07T12:22:21.289Z,8.80
2023-03-07T12:24:55.822Z,8.70
2023-03-07T12:27:27.153Z,8.60
2023-03-07T12:29:58.938Z,8.40
2023-03-07T12:32:27.599Z,8.20
2023-03-07T12:35:00.394Z,8.30
2023-03-07T12:37:31.501Z,8.40
2023-03-07T12:40:00.973Z,8.40
2023-03-07T12:42:33.904Z,8.40
2023-03-07T12:45:06.520Z,8.50
2023-03-07T12:47:37.126Z,8.60
2023-03-07T12:50:10.095Z,8.50
2023-03-07T12:52:41.937Z,8.60
2023-03-07T12:55:17.895Z,8.70
2023-03-07T12:57:50.176Z,8.70
2023-03-07T13:00:21.928Z,9.00
2023-03-07T13:02:54.331Z,9.20
2023-03-07T13:05:22.663Z,9.10
2023-03-07T13:07:51.104Z,9.20
2023-03-07T13:10:20.515Z,9.10
2023-03-07T13:12:48.967Z,8.90
2023-03-07T13:15:35.889Z,9.10
2023-03-07T13:18:05.716Z,9.20
2023-03-07T13:20:40.132Z,9.10
2023-03-07T13:23:28.347Z,8.80
2023-03-07T13:26:01.113Z,8.70
2023-03-07T13:28:33.993Z,8.60
2023-03-07T13:31:35.340Z,8.50
2023-03-07T13:34:19.240Z,8.30
2023-03-07T13:36:48.579Z,8.30
2023-03-07T13:39:31.509Z,8.30
2023-03-07T13:41:59.667Z,8.50
2023-03-07T13:44:30.266Z,8.30
2023-03-07T13:47:02.764Z,8.50
2023-03-07T13:49:34.831Z,8.70
2023-03-07T13:52:27.197Z,8.90
2023-03-07T13:54:55.419Z,9.00
2023-03-07T13:57:28.666Z,9.20
2023-03-07T13:59:57.624Z,9.30
2023-03-07T14:02:25.741Z,9.50
2023-03-07T14:04:57.606Z,9.70
2023-03-07T14:07:29.796Z,9.50
2023-03-07T14:09:58.889Z,9.60
2023-03-07T14:12:34.419Z,9.30
2023-03-07T14:15:20.602Z,9.20
2023-03-07T14:17:57.018Z,9.10
2023-03-07T14:20:28.566Z,9.10
2023-03-07T14:23:05.214Z,8.90
2023-03-07T14:25:34.461Z,8.90
2023-03-07T14:28:04.117Z,8.60
2023-03-07T14:30:35.736Z,8.30
2023-03-07T14:33:03.907Z,8.40
2023-03-07T14:35:39.724Z,8.40
2023-03-07T14:38:10.279Z,8.40
2023-03-07T14:40:44.937Z,8.40
2023-03-07T14:43:20.034Z,8.40
2023-03-07T14:45:50.415Z,8.30
2023-03-07T14:48:39.512Z,8.30
2023-03-07T14:51:12.963Z,8.20
2023-03-07T14:53:43.429Z,8.30
2023-03-07T14:56:11.935Z,8.30
2023-03-07T14:58:47.750Z,8.30
2023-03-07T15:01:19.679Z,8.20
2023-03-07T15:03:48.580Z,8.20
2023-03-07T15:06:17.420Z,8.20
2023-03-07T15:08:48.774Z,8.10
2023-03-07T15:11:24.914Z,8.10
2023-03-07T15:13:53.996Z,7.90
2023-03-07T15:16:26.132Z,7.90
2023-03-07T15:18:58.165Z,7.90
2023-03-07T15:21:27.345Z,8.00
2023-03-07T15:23:58.310Z,8.00
2023-03-07T15:26:27.519Z,8.10
2023-03-07T15:28:59.616Z,8.30
2023-03-07T15:31:29.911Z,8.20
2023-03-07T15:34:10.131Z,8.20
2023-03-07T15:36:39.573Z,8.10
2023-03-07T15:39:24.296Z,8.10
2023-03-07T15:41:59.739Z,8.20
2023-03-07T15:44:28.307Z,8.20
2023-03-07T15:46:57.804Z,8.20
2023-03-07T15:49:28.039Z,8.20
2023-03-07T15:51:59.284Z,8.20
2023-03-07T15:54:35.188Z,8.20
2023-03-07T15:57:05.764Z,8.20
2023-03-07T15:59:36.276Z,8.30
2023-03-07T16:02:39.960Z,8.10
2023-03-07T16:05:27.977Z,8.00
2023-03-07T16:07:57.123Z,8.00
2023-03-07T16:10:27.801Z,7.90
2023-03-07T16:13:00.142Z,7.90
2023-03-07T16:15:28.463Z,8.00
2023-03-07T16:17:56.746Z,8.10
2023-03-07T16:20:27.240Z,8.10
2023-03-07T16:22:55.753Z,8.10
2023-03-07T16:25:25.383Z,8.20
2023-03-07T16:27:57.260Z,8.10
2023-03-07T16:30:26.553Z,8.20
2023-03-07T16:32:54.867Z,8.10
2023-03-07T16:35:25.033Z,8.00
2023-03-07T16:37:53.728Z,8.00
2023-03-07T16:40:22.789Z,7.90
2023-03-07T16:42:51.663Z,7.80
2023-03-07T16:45:23.527Z,7.90
2023-03-07T16:47:52.529Z,7.90
2023-03-07T16:50:21.506Z,7.90
2023-03-07T16:52:49.812Z,8.00
2023-03-07T16:55:19.433Z,7.80
2023-03-07T16:57:52.307Z,8.10
2023-03-07T17:00:23.200Z,8.10
2023-03-07T17:02:52.762Z,8.20
2023-03-07T17:05:22.014Z,8.20
2023-03-07T17:07:50.222Z,8.30
2023-03-07T17:10:24.105Z,8.30
2023-03-07T17:12:53.630Z,8.20
2023-03-07T17:15:26.257Z,8.20
2023-03-07T17:17:54.880Z,8.20
2023-03-07T17:20:24.434Z,8.20
2023-03-07T17:22:53.876Z,8.30
2023-03-07T17:25:24.764Z,8.30
2023-03-07T17:27:55.275Z,8.40
2023-03-07T17:30:25.499Z,8.30
2023-03-07T17:33:02.038Z,8.30
2023-03-07T17:35:30.634Z,8.20
2023-03-07T17:37:58.763Z,8.20
2023-03-07T17:40:26.748Z,8.30
2023-03-07T17:43:13.761Z,8.30
2023-03-07T17:45:43.664Z,8.20
2023-03-07T17:48:11.721Z,8.10
2023-03-07T17:50:41.000Z,8.10
2023-03-07T17:53:09.858Z,8.00
2023-03-07T17:55:38.862Z,8.00
2023-03-07T17:58:08.108Z,8.10
2023-03-07T18:00:38.935Z,8.00
2023-03-07T18:03:08.813Z,8.00
2023-03-07T18:05:37.129Z,7.90
2023-03-07T18:08:05.424Z,7.90
2023-03-07T18:10:33.499Z,7.90
2023-03-07T18:13:01.744Z,7.90
2023-03-07T18:15:29.831Z,7.80
2023-03-07T18:18:00.099Z,7.80
2023-03-07T18:20:29.846Z,7.70
2023-03-07T18:22:57.866Z,7.70
2023-03-07T18:25:26.042Z,7.70
2023-03-07T18:27:54.055Z,7.70
2023-03-07T18:30:22.235Z,7.70
2023-03-07T18:33:08.808Z,7.60
2023-03-07T18:35:39.990Z,7.60
2023-03-07T18:38:08.672Z,7.60
2023-03-07T18:41:03.800Z,7.60
2023-03-07T18:43:50.939Z,7.60
2023-03-07T18:46:39.412Z,7.60
2023-03-07T18:49:29.599Z,7.70
2023-03-07T18:52:19.453Z,7.70
2023-03-07T18:55:08.627Z,7.70
2023-03-07T18:57:57.068Z,7.60
2023-03-07T19:00:45.469Z,7.60
2023-03-07T19:03:35.123Z,7.70
2023-03-07T19:06:24.403Z,7.60
2023-03-07T19:09:16.395Z,7.80
2023-03-07T19:12:04.821Z,7.70
2023-03-07T19:14:53.215Z,7.70
2023-03-07T19:17:43.596Z,7.70
2023-03-07T19:20:32.090Z,7.50
2023-03-07T19:23:21.607Z,7.50
2023-03-07T19:26:12.125Z,7.40
2023-03-07T19:29:00.451Z,7.40
2023-03-07T19:31:48.904Z,7.40
2023-03-07T19:34:37.232Z,7.40
2023-03-07T19:37:26.052Z,7.50
2023-03-07T19:40:15.341Z,7.50
2023-03-07T19:43:05.196Z,7.40
2023-03-07T19:45:55.550Z,7.50
2023-03-07T19:48:44.368Z,7.50
2023-03-07T19:51:32.749Z,7.40
2023-03-07T19:54:22.617Z,7.50
2023-03-07T19:57:14.860Z,7.60
2023-03-07T20:00:05.232Z,7.70
2023-03-07T20:03:00.757Z,7.60
2023-03-07T20:05:50.978Z,7.40
2023-03-07T20:08:39.384Z,7.50
2023-03-07T20:11:29.547Z,7.60
2023-03-07T20:14:17.968Z,7.60
2023-03-07T20:17:07.611Z,7.60
2023-03-07T20:19:59.720Z,7.60
2023-03-07T20:22:48.049Z,7.50
2023-03-07T20:25:36.461Z,7.60
2023-03-07T20:28:24.901Z,7.60
2023-03-07T20:31:13.313Z,7.50
2023-03-07T20:34:03.526Z,7.40
2023-03-07T20:36:51.839Z,7.40
2023-03-07T20:39:40.185Z,7.30
2023-03-07T20:42:28.540Z,7.20
2023-03-07T20:45:17.143Z,7.20
2023-03-07T20:48:05.523Z,7.20
2023-03-07T20:50:55.705Z,7.10
2023-03-07T20:53:43.962Z,7.10
2023-03-07T20:56:33.240Z,7.10
2023-03-07T20:59:23.783Z,7.10
2023-03-07T21:02:12.736Z,7.20
2023-03-07T21:05:01.346Z,7.10
2023-03-07T21:07:51.126Z,7.00
2023-03-07T21:10:39.610Z,7.10
2023-03-07T21:13:28.260Z,7.20
2023-03-07T21:16:17.576Z,7.20
2023-03-07T21:19:06.672Z,7.40
2023-03-07T21:21:54.983Z,7.20
2023-03-07T21:24:44.645Z,7.20
2023-03-07T21:27:33.075Z,7.20
2023-03-07T21:30:21.428Z,7.20
2023-03-07T21:33:10.751Z,7.20
2023-03-07T21:35:59.533Z,7.10
2023-03-07T21:38:49.206Z,7.20
2023-03-07T21:41:39.052Z,7.30
2023-03-07T21:44:27.421Z,7.20
2023-03-07T21:47:17.320Z,7.10
2023-03-07T21:50:05.954Z,6.90
2023-03-07T21:52:54.415Z,7.00
2023-03-07T21:55:49.982Z,7.10
2023-03-07T21:58:40.867Z,7.00
2023-03-07T22:01:29.899Z,7.10
2023-03-07T22:04:18.377Z,7.20
2023-03-07T22:07:06.985Z,7.00
2023-03-07T22:09:55.316Z,7.00
2023-03-07T22:12:43.985Z,7.10
2023-03-07T22:15:33.711Z,7.10
2023-03-07T22:18:22.025Z,7.00
2023-03-07T22:21:11.598Z,6.80
2023-03-07T22:24:01.012Z,6.80
2023-03-07T22:26:49.717Z,6.80
2023-03-07T22:29:38.006Z,6.80
2023-03-07T22:32:27.748Z,6.80
2023-03-07T22:35:16.156Z,6.90
2023-03-07T22:38:07.232Z,6.80
2023-03-07T22:41:00.583Z,6.80
2023-03-07T22:43:48.973Z,6.80
2023-03-07T22:46:37.267Z,6.80
2023-03-07T22:49:27.796Z,6.80
2023-03-07T22:52:16.219Z,6.90
2023-03-07T22:55:04.646Z,6.90
2023-03-07T22:57:52.960Z,6.90
2023-03-07T23:00:41.939Z,6.80
2023-03-07T23:03:30.511Z,6.90
2023-03-07T23:06:20.715Z,6.80
2023-03-07T23:09:09.925Z,6.80
2023-03-07T23:11:58.320Z,6.70
2023-03-07T23:14:46.952Z,6.80
2023-03-07T23:17:35.527Z,6.80
2023-03-07T23:20:26.134Z,6.80
2023-03-07T23:23:15.925Z,6.70
2023-03-07T23:26:04.388Z,6.60
2023-03-07T23:28:52.827Z,6.70
2023-03-07T23:31:42.720Z,6.70
2023-03-07T23:34:31.042Z,6.60
2023-03-07T23:37:19.348Z,6.40
2023-03-07T23:40:11.932Z,6.50
2023-03-07T23:43:00.315Z,6.50
2023-03-07T23:45:48.643Z,6.60
2023-03-07T23:48:37.077Z,6.60
2023-03-07T23:51:25.802Z,6.60
2023-03-07T23:54:14.055Z,6.60
2023-03-07T23:57:04.004Z,6.50
2023-03-07T23:59:52.502Z,6.40
